createdAt,value
2022-08-08T00:01:08.147Z,48.18
2022-08-08T00:06:35.344Z,48.46
2022-08-08T00:12:03.370Z,48.80
2022-08-08T00:17:23.580Z,48.76
2022-08-08T00:22:28.918Z,49.29
2022-08-08T00:27:33.720Z,50.19
2022-08-08T00:32:38.158Z,50.50
2022-08-08T00:37:47.538Z,50.65
2022-08-08T00:43:21.192Z,51.04
2022-08-08T00:48:38.941Z,51.39
2022-08-08T00:54:13.642Z,51.26
2022-08-08T00:59:53.762Z,51.38
2022-08-08T01:05:58.756Z,52.36
2022-08-08T01:11:15.264Z,52.44
2022-08-08T01:17:00.430Z,52.67
2022-08-08T01:22:39.499Z,53.25
2022-08-08T01:28:03.602Z,52.91
2022-08-08T01:34:00.312Z,53.11
2022-08-08T01:39:35.126Z,52.81
2022-08-08T01:44:56.092Z,53.36
2022-08-08T01:50:10.172Z,53.38
2022-08-08T01:56:28.799Z,53.54
2022-08-08T02:00:58.257Z,54.22
2022-08-08T02:06:31.642Z,54.00
2022-08-08T02:11:58.776Z,54.25
2022-08-08T02:17:20.432Z,54.77
2022-08-08T02:22:45.800Z,54.37
2022-08-08T02:28:03.713Z,54.79
2022-08-08T02:33:21.577Z,54.40
2022-08-08T02:38:50.665Z,54.04
2022-08-08T02:44:38.827Z,53.96
2022-08-08T02:50:17.694Z,54.85
2022-08-08T02:55:46.027Z,54.75
2022-08-08T03:01:20.495Z,54.59
2022-08-08T03:06:58.811Z,54.96
2022-08-08T03:13:01.186Z,54.93
2022-08-08T03:18:06.932Z,54.54
2022-08-08T03:23:10.980Z,55.37
2022-08-08T03:28:22.038Z,55.49
2022-08-08T03:33:57.034Z,55.48
2022-08-08T03:38:53.778Z,54.99
2022-08-08T03:44:05.831Z,56.02
2022-08-08T03:49:10.098Z,55.66
2022-08-08T03:54:43.766Z,56.25
2022-08-08T03:59:59.578Z,56.36
2022-08-08T04:05:12.274Z,56.56
2022-08-08T04:10:14.232Z,56.98
2022-08-08T04:15:13.287Z,57.04
2022-08-08T04:20:12.397Z,57.05
2022-08-08T04:25:15.357Z,56.24
2022-08-08T04:30:17.803Z,56.74
2022-08-08T04:35:22.726Z,56.54
2022-08-08T04:40:25.244Z,56.36
2022-08-08T04:45:29.486Z,56.73
2022-08-08T04:50:38.314Z,56.97
2022-08-08T04:55:55.467Z,57.36
2022-08-08T05:00:58.365Z,57.27
2022-08-08T05:05:58.200Z,57.23
2022-08-08T05:11:22.589Z,57.35
2022-08-08T05:16:53.004Z,57.14
2022-08-08T05:21:59.470Z,56.58
2022-08-08T05:26:59.950Z,56.46
2022-08-08T05:32:03.392Z,54.69
2022-08-08T05:37:16.059Z,54.85
2022-08-08T05:42:20.434Z,54.88
2022-08-08T05:47:41.758Z,53.92
2022-08-08T05:52:50.384Z,52.89
2022-08-08T05:58:04.337Z,53.04
2022-08-08T06:03:25.259Z,50.95
2022-08-08T06:08:38.007Z,49.95
2022-08-08T06:13:47.587Z,49.41
2022-08-08T06:18:52.795Z,50.80
2022-08-08T06:24:05.214Z,50.66
2022-08-08T06:29:48.792Z,50.46
2022-08-08T06:34:52.334Z,50.64
2022-08-08T06:39:58.425Z,49.81
2022-08-08T06:45:02.296Z,49.93
2022-08-08T06:50:08.430Z,48.81
2022-08-08T06:55:12.610Z,49.70
2022-08-08T07:00:16.980Z,49.23
2022-08-08T07:05:41.668Z,49.44
2022-08-08T07:10:49.970Z,49.04
2022-08-08T07:16:04.599Z,48.59
2022-08-08T07:21:18.474Z,48.26
2022-08-08T07:26:31.729Z,47.73
2022-08-08T07:31:35.392Z,48.38
2022-08-08T07:36:47.969Z,47.15
2022-08-08T07:42:03.684Z,46.97
2022-08-08T07:47:05.786Z,46.41
2022-08-08T07:52:07.859Z,45.69
2022-08-08T07:57:30.300Z,45.14
2022-08-08T08:02:41.707Z,44.88
2022-08-08T08:07:53.400Z,45.02
2022-08-08T08:13:25.526Z,44.52
2022-08-08T08:18:55.861Z,43.20
2022-08-08T08:24:02.657Z,42.80
2022-08-08T08:29:02.914Z,42.22
2022-08-08T08:34:06.792Z,42.04
2022-08-08T08:39:17.706Z,41.66
2022-08-08T08:44:23.707Z,41.16
2022-08-08T08:49:33.476Z,39.18
2022-08-08T08:54:36.165Z,36.95
2022-08-08T08:59:59.973Z,35.49
2022-08-08T09:05:07.942Z,32.83
2022-08-08T09:10:17.482Z,31.44
2022-08-08T09:15:41.669Z,29.60
2022-08-08T09:21:58.400Z,28.35
2022-08-08T09:26:06.193Z,27.89
2022-08-08T09:31:16.416Z,27.03
2022-08-08T09:36:24.160Z,26.66
2022-08-08T09:41:54.907Z,25.33
2022-08-08T09:48:05.119Z,24.95
2022-08-08T09:53:15.332Z,25.02
2022-08-08T09:58:06.453Z,24.24
2022-08-08T10:03:06.947Z,22.49
2022-08-08T10:08:09.987Z,22.20
2022-08-08T10:13:26.094Z,22.34
2022-08-08T10:18:33.633Z,20.89
2022-08-08T10:23:44.074Z,19.51
2022-08-08T10:28:58.001Z,20.46
2022-08-08T10:34:20.169Z,20.27
2022-08-08T10:39:23.317Z,18.99
2022-08-08T10:44:43.310Z,18.40
2022-08-08T10:50:01.855Z,17.74
2022-08-08T10:55:05.149Z,17.04
2022-08-08T11:00:10.569Z,17.01
2022-08-08T11:05:14.701Z,16.86
2022-08-08T11:10:19.549Z,17.06
2022-08-08T11:15:31.228Z,16.48
2022-08-08T11:20:30.772Z,16.40
2022-08-08T11:25:52.716Z,16.09
2022-08-08T11:30:52.994Z,16.48
2022-08-08T11:35:52.839Z,16.30
2022-08-08T11:40:52.899Z,16.19
2022-08-08T11:46:09.842Z,15.87
2022-08-08T11:51:39.159Z,17.07
2022-08-08T11:56:35.084Z,17.07
2022-08-08T12:01:35.646Z,17.31
2022-08-08T12:06:34.517Z,18.05
2022-08-08T12:11:40.856Z,18.24
2022-08-08T12:16:52.496Z,15.81
2022-08-08T12:22:00.034Z,16.09
2022-08-08T12:27:19.145Z,15.43
2022-08-08T12:32:22.460Z,15.38
2022-08-08T12:37:22.702Z,14.52
2022-08-08T12:42:32.809Z,13.64
2022-08-08T12:47:58.962Z,13.93
2022-08-08T12:52:55.912Z,12.71
2022-08-08T12:57:56.605Z,13.75
2022-08-08T13:03:00.958Z,14.73
2022-08-08T13:08:02.328Z,15.43
2022-08-08T13:13:06.110Z,14.67
2022-08-08T13:18:13.596Z,14.91
2022-08-08T13:23:41.320Z,15.12
2022-08-08T13:28:42.374Z,14.09
2022-08-08T13:33:43.416Z,13.10
2022-08-08T13:38:42.871Z,13.66
2022-08-08T13:43:42.712Z,13.91
2022-08-08T13:48:46.982Z,14.09
2022-08-08T13:54:05.972Z,14.06
2022-08-08T13:59:07.465Z,13.01
2022-08-08T14:04:08.423Z,12.79
2022-08-08T14:09:24.655Z,12.86
2022-08-08T14:14:43.283Z,13.53
2022-08-08T14:19:57.931Z,13.95
2022-08-08T14:25:07.765Z,13.63
2022-08-08T14:30:17.803Z,13.56
2022-08-08T14:35:20.432Z,14.01
2022-08-08T14:40:22.217Z,14.31
2022-08-08T14:45:33.448Z,14.64
2022-08-08T14:50:49.273Z,13.60
2022-08-08T14:56:02.238Z,14.22
2022-08-08T15:01:04.934Z,14.12
2022-08-08T15:06:08.081Z,14.51
2022-08-08T15:11:11.708Z,13.98
2022-08-08T15:16:49.823Z,14.70
2022-08-08T15:21:50.101Z,14.58
2022-08-08T15:26:52.817Z,14.18
2022-08-08T15:32:20.850Z,14.61
2022-08-08T15:37:30.360Z,14.86
2022-08-08T15:42:32.012Z,14.47
2022-08-08T15:47:37.136Z,14.96
2022-08-08T15:52:40.691Z,15.24
2022-08-08T15:57:44.341Z,16.05
2022-08-08T16:02:51.241Z,15.88
2022-08-08T16:07:58.771Z,15.78
2022-08-08T16:13:26.410Z,16.17
2022-08-08T16:18:18.159Z,16.54
2022-08-08T16:23:23.365Z,16.29
2022-08-08T16:28:35.804Z,16.29
2022-08-08T16:33:38.467Z,16.47
2022-08-08T16:38:44.863Z,18.35
2022-08-08T16:43:51.128Z,20.06
2022-08-08T16:49:01.620Z,19.86
2022-08-08T16:55:06.263Z,20.70
2022-08-08T16:59:22.588Z,20.55
2022-08-08T17:04:22.060Z,21.48
2022-08-08T17:09:23.174Z,22.96
2022-08-08T17:14:27.054Z,21.85
2022-08-08T17:19:27.278Z,21.53
2022-08-08T17:24:30.141Z,21.85
2022-08-08T17:29:33.999Z,21.62
2022-08-08T17:35:44.375Z,21.72
2022-08-08T17:40:05.834Z,22.26
2022-08-08T17:45:22.887Z,21.90
2022-08-08T17:50:23.838Z,22.46
2022-08-08T17:56:03.788Z,22.42
2022-08-08T18:00:42.775Z,22.22
2022-08-08T18:05:50.032Z,22.27
2022-08-08T18:10:55.755Z,22.90
2022-08-08T18:16:00.050Z,23.00
2022-08-08T18:21:10.826Z,23.14
2022-08-08T18:26:29.088Z,23.24
2022-08-08T18:31:31.782Z,23.30
2022-08-08T18:36:31.109Z,23.30
2022-08-08T18:41:51.732Z,23.33
2022-08-08T18:46:57.891Z,23.57
2022-08-08T18:51:58.594Z,24.01
2022-08-08T18:57:04.539Z,24.13
2022-08-08T19:02:24.932Z,23.97
2022-08-08T19:07:29.970Z,24.79
2022-08-08T19:12:35.168Z,24.35
2022-08-08T19:17:47.974Z,24.18
2022-08-08T19:22:56.896Z,24.73
2022-08-08T19:27:59.851Z,25.36
2022-08-08T19:33:00.610Z,25.58
2022-08-08T19:38:03.254Z,26.21
2022-08-08T19:43:03.577Z,26.81
2022-08-08T19:48:29.499Z,27.98
2022-08-08T19:53:52.158Z,28.64
2022-08-08T19:58:51.605Z,28.92
2022-08-08T20:04:01.412Z,28.81
2022-08-08T20:09:04.670Z,29.14
2022-08-08T20:14:13.280Z,29.44
2022-08-08T20:19:34.527Z,29.07
2022-08-08T20:24:41.405Z,29.31
2022-08-08T20:29:45.448Z,30.57
2022-08-08T20:35:00.612Z,30.31
2022-08-08T20:40:00.466Z,30.69
2022-08-08T20:45:00.663Z,31.14
2022-08-08T20:50:00.530Z,31.85
2022-08-08T20:55:00.155Z,32.17
2022-08-08T21:00:00.733Z,32.45
2022-08-08T21:05:01.743Z,32.44
2022-08-08T21:10:12.361Z,32.61
2022-08-08T21:15:16.325Z,32.82
2022-08-08T21:20:34.442Z,33.09
2022-08-08T21:25:36.445Z,33.52
2022-08-08T21:30:36.834Z,33.90
2022-08-08T21:36:13.587Z,34.64
2022-08-08T21:40:57.086Z,34.79
2022-08-08T21:48:07.326Z,35.21
2022-08-08T21:51:16.082Z,35.28
2022-08-08T21:56:29.576Z,35.96
2022-08-08T22:01:40.624Z,36.01
2022-08-08T22:06:40.941Z,36.84
2022-08-08T22:12:02.445Z,37.00
2022-08-08T22:17:01.029Z,37.42
2022-08-08T22:22:00.018Z,38.33
2022-08-08T22:27:02.396Z,38.38
2022-08-08T22:32:05.757Z,38.45
2022-08-08T22:37:04.528Z,38.73
2022-08-08T22:42:10.208Z,38.72
2022-08-08T22:47:16.707Z,39.25
2022-08-08T22:52:19.238Z,39.40
2022-08-08T22:57:24.934Z,39.87
2022-08-08T23:02:25.829Z,39.65
2022-08-08T23:07:56.990Z,40.51
2022-08-08T23:12:44.490Z,40.74
2022-08-08T23:17:46.785Z,40.57
2022-08-08T23:22:53.136Z,40.88
2022-08-08T23:27:54.229Z,41.42
2022-08-08T23:32:55.004Z,41.33
2022-08-08T23:38:02.986Z,41.77
2022-08-08T23:43:04.423Z,42.17
2022-08-08T23:49:07.544Z,42.67
2022-08-08T23:54:05.287Z,42.77
2022-08-08T23:58:43.364Z,42.52
